sensor_id;sensor_type;location;lat;lon;timestamp;P1;durP1;ratioP1;P2;durP2;ratioP2
3997;SDS011;61314;53.444;9.902;2022-08-19T00:01:22;9.10;;;6.57;;
3997;SDS011;61314;53.444;9.902;2022-08-19T00:03:58;8.30;;;6.77;;
3997;SDS011;61314;53.444;9.902;2022-08-19T00:06:28;8.93;;;7.17;;
3997;SDS011;61314;53.444;9.902;2022-08-19T00:08:57;12.50;;;6.57;;
3997;SDS011;61314;53.444;9.902;2022-08-19T00:11:26;8.23;;;6.27;;
3997;SDS011;61314;53.444;9.902;2022-08-19T00:13:54;6.97;;;6.27;;
3997;SDS011;61314;53.444;9.902;2022-08-19T00:16:23;8.80;;;7.60;;
3997;SDS011;61314;53.444;9.902;2022-08-19T00:18:52;8.90;;;7.10;;
3997;SDS011;61314;53.444;9.902;2022-08-19T00:21:21;10.67;;;6.90;;
3997;SDS011;61314;53.444;9.902;2022-08-19T00:23:48;7.60;;;6.90;;
3997;SDS011;61314;53.444;9.902;2022-08-19T00:26:16;9.52;;;7.20;;
3997;SDS011;61314;53.444;9.902;2022-08-19T00:28:43;8.60;;;7.03;;
3997;SDS011;61314;53.444;9.902;2022-08-19T00:31:10;15.70;;;7.20;;
3997;SDS011;61314;53.444;9.902;2022-08-19T00:33:37;12.47;;;7.00;;
3997;SDS011;61314;53.444;9.902;2022-08-19T00:36:05;9.13;;;6.90;;
3997;SDS011;61314;53.444;9.902;2022-08-19T00:38:33;8.73;;;7.00;;
3997;SDS011;61314;53.444;9.902;2022-08-19T00:41:03;7.10;;;6.30;;
3997;SDS011;61314;53.444;9.902;2022-08-19T00:43:30;9.40;;;7.30;;
3997;SDS011;61314;53.444;9.902;2022-08-19T00:45:57;7.30;;;6.50;;
3997;SDS011;61314;53.444;9.902;2022-08-19T00:48:25;8.73;;;6.87;;
3997;SDS011;61314;53.444;9.902;2022-08-19T00:50:51;8.03;;;7.23;;
3997;SDS011;61314;53.444;9.902;2022-08-19T00:53:21;11.87;;;7.83;;
3997;SDS011;61314;53.444;9.902;2022-08-19T00:55:50;11.73;;;8.17;;
3997;SDS011;61314;53.444;9.902;2022-08-19T00:58:21;8.13;;;7.43;;
3997;SDS011;61314;53.444;9.902;2022-08-19T01:00:50;13.23;;;7.43;;
3997;SDS011;61314;53.444;9.902;2022-08-19T01:03:18;9.80;;;7.87;;
3997;SDS011;61314;53.444;9.902;2022-08-19T01:05:45;13.30;;;7.27;;
3997;SDS011;61314;53.444;9.902;2022-08-19T01:08:14;10.60;;;7.73;;
3997;SDS011;61314;53.444;9.902;2022-08-19T01:10:43;17.00;;;7.60;;
3997;SDS011;61314;53.444;9.902;2022-08-19T01:13:17;9.23;;;8.17;;
3997;SDS011;61314;53.444;9.902;2022-08-19T01:15:50;10.93;;;8.47;;
3997;SDS011;61314;53.444;9.902;2022-08-19T01:18:19;7.97;;;7.17;;
3997;SDS011;61314;53.444;9.902;2022-08-19T01:20:47;12.07;;;8.13;;
3997;SDS011;61314;53.444;9.902;2022-08-19T01:23:14;15.13;;;8.70;;
3997;SDS011;61314;53.444;9.902;2022-08-19T01:25:45;14.07;;;8.03;;
3997;SDS011;61314;53.444;9.902;2022-08-19T01:28:16;8.50;;;7.77;;
3997;SDS011;61314;53.444;9.902;2022-08-19T01:30:59;18.13;;;8.10;;
3997;SDS011;61314;53.444;9.902;2022-08-19T01:33:33;15.80;;;8.30;;
3997;SDS011;61314;53.444;9.902;2022-08-19T01:36:11;7.70;;;7.07;;
3997;SDS011;61314;53.444;9.902;2022-08-19T01:38:48;9.60;;;8.07;;
3997;SDS011;61314;53.444;9.902;2022-08-19T01:41:15;12.20;;;7.60;;
3997;SDS011;61314;53.444;9.902;2022-08-19T01:43:43;12.67;;;7.63;;
3997;SDS011;61314;53.444;9.902;2022-08-19T01:46:31;9.10;;;7.90;;
3997;SDS011;61314;53.444;9.902;2022-08-19T01:48:58;9.93;;;7.80;;
3997;SDS011;61314;53.444;9.902;2022-08-19T01:51:25;15.60;;;7.43;;
3997;SDS011;61314;53.444;9.902;2022-08-19T01:53:54;12.87;;;8.77;;
3997;SDS011;61314;53.444;9.902;2022-08-19T01:56:21;15.23;;;9.10;;
3997;SDS011;61314;53.444;9.902;2022-08-19T01:58:49;10.67;;;8.63;;
3997;SDS011;61314;53.444;9.902;2022-08-19T02:01:20;13.73;;;9.20;;
3997;SDS011;61314;53.444;9.902;2022-08-19T02:03:46;12.70;;;8.63;;
3997;SDS011;61314;53.444;9.902;2022-08-19T02:06:13;13.13;;;9.30;;
3997;SDS011;61314;53.444;9.902;2022-08-19T02:08:40;11.63;;;9.13;;
3997;SDS011;61314;53.444;9.902;2022-08-19T02:11:07;9.37;;;8.47;;
3997;SDS011;61314;53.444;9.902;2022-08-19T02:13:34;15.97;;;9.10;;
3997;SDS011;61314;53.444;9.902;2022-08-19T02:16:00;12.10;;;8.77;;
3997;SDS011;61314;53.444;9.902;2022-08-19T02:18:29;10.60;;;9.50;;
3997;SDS011;61314;53.444;9.902;2022-08-19T02:20:56;11.07;;;10.00;;
3997;SDS011;61314;53.444;9.902;2022-08-19T02:23:22;11.33;;;10.13;;
3997;SDS011;61314;53.444;9.902;2022-08-19T02:25:49;21.33;;;10.90;;
3997;SDS011;61314;53.444;9.902;2022-08-19T02:28:17;14.40;;;9.73;;
3997;SDS011;61314;53.444;9.902;2022-08-19T02:30:44;15.50;;;11.30;;
3997;SDS011;61314;53.444;9.902;2022-08-19T02:33:12;18.10;;;10.97;;
3997;SDS011;61314;53.444;9.902;2022-08-19T02:35:44;17.30;;;11.40;;
3997;SDS011;61314;53.444;9.902;2022-08-19T02:38:13;17.83;;;12.40;;
3997;SDS011;61314;53.444;9.902;2022-08-19T02:40:55;13.40;;;10.90;;
3997;SDS011;61314;53.444;9.902;2022-08-19T02:43:26;31.07;;;13.73;;
3997;SDS011;61314;53.444;9.902;2022-08-19T02:45:59;20.33;;;11.60;;
3997;SDS011;61314;53.444;9.902;2022-08-19T02:48:26;24.70;;;16.93;;
3997;SDS011;61314;53.444;9.902;2022-08-19T02:50:53;26.60;;;17.67;;
3997;SDS011;61314;53.444;9.902;2022-08-19T02:53:23;30.20;;;17.07;;
3997;SDS011;61314;53.444;9.902;2022-08-19T02:55:52;23.40;;;17.53;;
3997;SDS011;61314;53.444;9.902;2022-08-19T02:58:20;28.23;;;17.87;;
3997;SDS011;61314;53.444;9.902;2022-08-19T03:00:49;32.37;;;15.60;;
3997;SDS011;61314;53.444;9.902;2022-08-19T03:03:19;34.77;;;16.63;;
3997;SDS011;61314;53.444;9.902;2022-08-19T03:05:46;25.53;;;14.23;;
3997;SDS011;61314;53.444;9.902;2022-08-19T03:08:22;30.50;;;16.63;;
3997;SDS011;61314;53.444;9.902;2022-08-19T03:10:50;20.23;;;14.70;;
3997;SDS011;61314;53.444;9.902;2022-08-19T03:13:18;28.17;;;15.20;;
3997;SDS011;61314;53.444;9.902;2022-08-19T03:15:45;19.53;;;13.80;;
3997;SDS011;61314;53.444;9.902;2022-08-19T03:18:14;24.33;;;14.10;;
3997;SDS011;61314;53.444;9.902;2022-08-19T03:20:43;24.27;;;15.38;;
3997;SDS011;61314;53.444;9.902;2022-08-19T03:23:13;29.20;;;16.23;;
3997;SDS011;61314;53.444;9.902;2022-08-19T03:25:41;19.33;;;14.10;;
3997;SDS011;61314;53.444;9.902;2022-08-19T03:28:12;20.40;;;14.60;;
3997;SDS011;61314;53.444;9.902;2022-08-19T03:30:41;27.70;;;16.20;;
3997;SDS011;61314;53.444;9.902;2022-08-19T03:33:10;27.20;;;16.40;;
3997;SDS011;61314;53.444;9.902;2022-08-19T03:38:40;30.63;;;16.37;;
3997;SDS011;61314;53.444;9.902;2022-08-19T03:41:13;29.33;;;15.77;;
3997;SDS011;61314;53.444;9.902;2022-08-19T03:43:42;28.77;;;16.10;;
3997;SDS011;61314;53.444;9.902;2022-08-19T03:46:10;24.97;;;16.57;;
3997;SDS011;61314;53.444;9.902;2022-08-19T03:48:46;29.50;;;16.93;;
3997;SDS011;61314;53.444;9.902;2022-08-19T03:51:18;32.00;;;16.17;;
3997;SDS011;61314;53.444;9.902;2022-08-19T03:53:56;31.60;;;16.73;;
3997;SDS011;61314;53.444;9.902;2022-08-19T03:56:24;30.20;;;17.50;;
3997;SDS011;61314;53.444;9.902;2022-08-19T03:58:52;23.80;;;15.93;;
3997;SDS011;61314;53.444;9.902;2022-08-19T04:01:20;26.80;;;16.97;;
3997;SDS011;61314;53.444;9.902;2022-08-19T04:04:00;25.50;;;16.37;;
3997;SDS011;61314;53.444;9.902;2022-08-19T04:06:29;36.00;;;18.20;;
3997;SDS011;61314;53.444;9.902;2022-08-19T04:08:59;28.00;;;16.37;;
3997;SDS011;61314;53.444;9.902;2022-08-19T04:11:28;37.63;;;18.00;;
3997;SDS011;61314;53.444;9.902;2022-08-19T04:14:11;40.70;;;17.80;;
3997;SDS011;61314;53.444;9.902;2022-08-19T04:16:38;25.20;;;16.17;;
3997;SDS011;61314;53.444;9.902;2022-08-19T04:19:05;27.83;;;16.40;;
3997;SDS011;61314;53.444;9.902;2022-08-19T04:21:33;28.20;;;17.57;;
3997;SDS011;61314;53.444;9.902;2022-08-19T04:24:00;31.80;;;16.73;;
3997;SDS011;61314;53.444;9.902;2022-08-19T04:26:31;24.80;;;15.23;;
3997;SDS011;61314;53.444;9.902;2022-08-19T04:29:03;26.20;;;16.90;;
3997;SDS011;61314;53.444;9.902;2022-08-19T04:31:37;29.17;;;17.10;;
3997;SDS011;61314;53.444;9.902;2022-08-19T04:34:08;35.60;;;19.00;;
3997;SDS011;61314;53.444;9.902;2022-08-19T04:36:37;33.37;;;18.13;;
3997;SDS011;61314;53.444;9.902;2022-08-19T04:39:07;30.40;;;15.97;;
3997;SDS011;61314;53.444;9.902;2022-08-19T04:41:34;27.70;;;15.50;;
3997;SDS011;61314;53.444;9.902;2022-08-19T04:44:20;35.63;;;18.00;;
3997;SDS011;61314;53.444;9.902;2022-08-19T04:46:48;23.40;;;15.87;;
3997;SDS011;61314;53.444;9.902;2022-08-19T04:49:18;32.53;;;18.50;;
3997;SDS011;61314;53.444;9.902;2022-08-19T04:51:45;30.00;;;16.93;;
3997;SDS011;61314;53.444;9.902;2022-08-19T04:54:16;31.50;;;16.40;;
3997;SDS011;61314;53.444;9.902;2022-08-19T04:57:03;37.47;;;17.40;;
3997;SDS011;61314;53.444;9.902;2022-08-19T04:59:32;30.17;;;18.10;;
3997;SDS011;61314;53.444;9.902;2022-08-19T05:01:59;29.17;;;18.07;;
3997;SDS011;61314;53.444;9.902;2022-08-19T05:04:26;33.17;;;18.10;;
3997;SDS011;61314;53.444;9.902;2022-08-19T05:06:56;39.63;;;18.30;;
3997;SDS011;61314;53.444;9.902;2022-08-19T05:09:26;33.53;;;17.73;;
3997;SDS011;61314;53.444;9.902;2022-08-19T05:12:14;34.30;;;17.97;;
3997;SDS011;61314;53.444;9.902;2022-08-19T05:14:41;28.47;;;16.70;;
3997;SDS011;61314;53.444;9.902;2022-08-19T05:17:09;33.50;;;15.90;;
3997;SDS011;61314;53.444;9.902;2022-08-19T05:19:53;29.60;;;16.70;;
3997;SDS011;61314;53.444;9.902;2022-08-19T05:22:39;23.63;;;16.70;;
3997;SDS011;61314;53.444;9.902;2022-08-19T05:25:07;34.00;;;16.70;;
3997;SDS011;61314;53.444;9.902;2022-08-19T05:27:38;29.10;;;16.80;;
3997;SDS011;61314;53.444;9.902;2022-08-19T05:30:06;25.03;;;15.63;;
3997;SDS011;61314;53.444;9.902;2022-08-19T05:32:33;24.23;;;16.60;;
3997;SDS011;61314;53.444;9.902;2022-08-19T05:35:00;20.43;;;16.13;;
3997;SDS011;61314;53.444;9.902;2022-08-19T05:37:27;28.70;;;17.63;;
3997;SDS011;61314;53.444;9.902;2022-08-19T05:39:55;29.93;;;19.97;;
3997;SDS011;61314;53.444;9.902;2022-08-19T05:42:22;23.90;;;16.43;;
3997;SDS011;61314;53.444;9.902;2022-08-19T05:44:49;27.60;;;16.13;;
3997;SDS011;61314;53.444;9.902;2022-08-19T05:47:17;25.97;;;17.30;;
3997;SDS011;61314;53.444;9.902;2022-08-19T05:49:46;21.77;;;16.13;;
3997;SDS011;61314;53.444;9.902;2022-08-19T05:52:13;26.60;;;16.87;;
3997;SDS011;61314;53.444;9.902;2022-08-19T05:54:44;28.20;;;19.57;;
3997;SDS011;61314;53.444;9.902;2022-08-19T05:57:16;28.50;;;18.87;;
3997;SDS011;61314;53.444;9.902;2022-08-19T05:59:43;33.23;;;20.80;;
3997;SDS011;61314;53.444;9.902;2022-08-19T06:02:24;26.63;;;19.10;;
3997;SDS011;61314;53.444;9.902;2022-08-19T06:04:51;28.50;;;19.37;;
3997;SDS011;61314;53.444;9.902;2022-08-19T06:07:19;21.30;;;17.20;;
3997;SDS011;61314;53.444;9.902;2022-08-19T06:09:46;27.97;;;19.80;;
3997;SDS011;61314;53.444;9.902;2022-08-19T06:12:26;31.63;;;18.17;;
3997;SDS011;61314;53.444;9.902;2022-08-19T06:14:57;29.97;;;19.90;;
3997;SDS011;61314;53.444;9.902;2022-08-19T06:17:26;30.93;;;19.10;;
3997;SDS011;61314;53.444;9.902;2022-08-19T06:19:53;22.23;;;15.73;;
3997;SDS011;61314;53.444;9.902;2022-08-19T06:22:20;28.67;;;17.97;;
3997;SDS011;61314;53.444;9.902;2022-08-19T06:24:47;34.93;;;19.97;;
3997;SDS011;61314;53.444;9.902;2022-08-19T06:27:18;21.53;;;18.47;;
3997;SDS011;61314;53.444;9.902;2022-08-19T06:29:46;34.17;;;18.20;;
3997;SDS011;61314;53.444;9.902;2022-08-19T06:32:14;29.03;;;19.83;;
3997;SDS011;61314;53.444;9.902;2022-08-19T06:34:42;35.70;;;19.57;;
3997;SDS011;61314;53.444;9.902;2022-08-19T06:37:10;29.40;;;19.60;;
3997;SDS011;61314;53.444;9.902;2022-08-19T06:39:41;26.83;;;17.43;;
3997;SDS011;61314;53.444;9.902;2022-08-19T06:42:09;26.00;;;15.90;;
3997;SDS011;61314;53.444;9.902;2022-08-19T06:44:43;25.63;;;16.30;;
3997;SDS011;61314;53.444;9.902;2022-08-19T06:47:15;23.00;;;15.53;;
3997;SDS011;61314;53.444;9.902;2022-08-19T06:49:55;37.17;;;16.90;;
3997;SDS011;61314;53.444;9.902;2022-08-19T06:52:29;28.90;;;15.97;;
3997;SDS011;61314;53.444;9.902;2022-08-19T06:54:59;24.13;;;14.40;;
3997;SDS011;61314;53.444;9.902;2022-08-19T06:57:26;21.70;;;14.37;;
3997;SDS011;61314;53.444;9.902;2022-08-19T06:59:58;20.47;;;14.40;;
3997;SDS011;61314;53.444;9.902;2022-08-19T07:02:26;18.17;;;13.90;;
3997;SDS011;61314;53.444;9.902;2022-08-19T07:04:53;17.10;;;14.40;;
3997;SDS011;61314;53.444;9.902;2022-08-19T07:07:22;22.20;;;14.77;;
3997;SDS011;61314;53.444;9.902;2022-08-19T07:09:49;21.80;;;13.63;;
3997;SDS011;61314;53.444;9.902;2022-08-19T07:12:27;25.93;;;15.20;;
3997;SDS011;61314;53.444;9.902;2022-08-19T07:14:56;21.40;;;12.87;;
3997;SDS011;61314;53.444;9.902;2022-08-19T07:17:24;29.67;;;14.80;;
3997;SDS011;61314;53.444;9.902;2022-08-19T07:19:51;22.23;;;12.60;;
3997;SDS011;61314;53.444;9.902;2022-08-19T07:22:20;17.23;;;13.30;;
3997;SDS011;61314;53.444;9.902;2022-08-19T07:24:49;19.53;;;14.60;;
3997;SDS011;61314;53.444;9.902;2022-08-19T07:27:17;26.23;;;13.90;;
3997;SDS011;61314;53.444;9.902;2022-08-19T07:29:51;27.03;;;14.30;;
3997;SDS011;61314;53.444;9.902;2022-08-19T07:32:22;24.93;;;14.83;;
3997;SDS011;61314;53.444;9.902;2022-08-19T07:34:51;23.57;;;14.70;;
3997;SDS011;61314;53.444;9.902;2022-08-19T07:37:18;17.97;;;13.90;;
3997;SDS011;61314;53.444;9.902;2022-08-19T07:39:46;19.13;;;14.07;;
3997;SDS011;61314;53.444;9.902;2022-08-19T07:42:13;20.50;;;13.27;;
3997;SDS011;61314;53.444;9.902;2022-08-19T07:44:40;21.87;;;14.37;;
3997;SDS011;61314;53.444;9.902;2022-08-19T07:47:15;18.37;;;12.87;;
3997;SDS011;61314;53.444;9.902;2022-08-19T07:50:04;17.70;;;13.07;;
3997;SDS011;61314;53.444;9.902;2022-08-19T07:52:33;25.87;;;13.40;;
3997;SDS011;61314;53.444;9.902;2022-08-19T07:55:01;15.33;;;12.60;;
3997;SDS011;61314;53.444;9.902;2022-08-19T07:57:29;16.47;;;12.57;;
3997;SDS011;61314;53.444;9.902;2022-08-19T07:59:57;25.50;;;13.40;;
3997;SDS011;61314;53.444;9.902;2022-08-19T08:02:24;26.00;;;13.00;;
3997;SDS011;61314;53.444;9.902;2022-08-19T08:04:51;24.20;;;13.50;;
3997;SDS011;61314;53.444;9.902;2022-08-19T08:07:38;25.00;;;13.93;;
3997;SDS011;61314;53.444;9.902;2022-08-19T08:10:24;20.93;;;13.73;;
3997;SDS011;61314;53.444;9.902;2022-08-19T08:12:52;19.90;;;15.03;;
3997;SDS011;61314;53.444;9.902;2022-08-19T08:15:37;25.00;;;14.00;;
3997;SDS011;61314;53.444;9.902;2022-08-19T08:18:07;29.97;;;15.07;;
3997;SDS011;61314;53.444;9.902;2022-08-19T08:20:35;22.93;;;15.17;;
3997;SDS011;61314;53.444;9.902;2022-08-19T08:23:02;18.63;;;13.60;;
3997;SDS011;61314;53.444;9.902;2022-08-19T08:25:48;22.07;;;15.50;;
3997;SDS011;61314;53.444;9.902;2022-08-19T08:28:16;29.70;;;15.73;;
3997;SDS011;61314;53.444;9.902;2022-08-19T08:30:43;17.13;;;13.83;;
3997;SDS011;61314;53.444;9.902;2022-08-19T08:33:12;22.00;;;14.63;;
3997;SDS011;61314;53.444;9.902;2022-08-19T08:35:44;21.50;;;16.13;;
3997;SDS011;61314;53.444;9.902;2022-08-19T08:38:11;25.10;;;16.63;;
3997;SDS011;61314;53.444;9.902;2022-08-19T08:40:47;27.20;;;16.10;;
3997;SDS011;61314;53.444;9.902;2022-08-19T08:43:38;20.47;;;14.07;;
3997;SDS011;61314;53.444;9.902;2022-08-19T08:51:09;24.73;;;15.30;;
3997;SDS011;61314;53.444;9.902;2022-08-19T08:53:37;31.13;;;17.77;;
3997;SDS011;61314;53.444;9.902;2022-08-19T08:56:07;24.93;;;17.30;;
3997;SDS011;61314;53.444;9.902;2022-08-19T09:01:11;26.43;;;16.10;;
3997;SDS011;61314;53.444;9.902;2022-08-19T09:03:40;24.53;;;14.70;;
3997;SDS011;61314;53.444;9.902;2022-08-19T09:08:45;29.03;;;16.33;;
3997;SDS011;61314;53.444;9.902;2022-08-19T09:11:19;20.80;;;15.30;;
3997;SDS011;61314;53.444;9.902;2022-08-19T09:17:00;34.93;;;16.90;;
3997;SDS011;61314;53.444;9.902;2022-08-19T09:19:29;22.37;;;15.77;;
3997;SDS011;61314;53.444;9.902;2022-08-19T09:21:57;25.50;;;16.20;;
3997;SDS011;61314;53.444;9.902;2022-08-19T09:24:26;21.03;;;14.60;;
3997;SDS011;61314;53.444;9.902;2022-08-19T09:26:56;23.83;;;13.83;;
3997;SDS011;61314;53.444;9.902;2022-08-19T09:29:23;22.40;;;13.80;;
3997;SDS011;61314;53.444;9.902;2022-08-19T09:31:50;26.23;;;14.27;;
3997;SDS011;61314;53.444;9.902;2022-08-19T09:34:18;21.60;;;14.60;;
3997;SDS011;61314;53.444;9.902;2022-08-19T09:36:47;23.27;;;14.07;;
3997;SDS011;61314;53.444;9.902;2022-08-19T09:39:20;21.63;;;13.43;;
3997;SDS011;61314;53.444;9.902;2022-08-19T09:41:47;21.80;;;13.60;;
3997;SDS011;61314;53.444;9.902;2022-08-19T09:44:16;35.67;;;13.60;;
3997;SDS011;61314;53.444;9.902;2022-08-19T09:46:44;24.83;;;14.43;;
3997;SDS011;61314;53.444;9.902;2022-08-19T09:49:13;26.00;;;16.13;;
3997;SDS011;61314;53.444;9.902;2022-08-19T09:51:40;30.77;;;15.00;;
3997;SDS011;61314;53.444;9.902;2022-08-19T09:54:07;25.53;;;14.67;;
3997;SDS011;61314;53.444;9.902;2022-08-19T09:56:36;22.27;;;14.90;;
3997;SDS011;61314;53.444;9.902;2022-08-19T09:59:07;26.77;;;17.33;;
3997;SDS011;61314;53.444;9.902;2022-08-19T10:01:35;30.57;;;16.80;;
3997;SDS011;61314;53.444;9.902;2022-08-19T10:04:02;22.43;;;15.43;;
3997;SDS011;61314;53.444;9.902;2022-08-19T10:06:45;25.27;;;16.20;;
3997;SDS011;61314;53.444;9.902;2022-08-19T10:09:18;23.60;;;14.70;;
3997;SDS011;61314;53.444;9.902;2022-08-19T10:11:59;21.13;;;14.70;;
3997;SDS011;61314;53.444;9.902;2022-08-19T10:14:27;25.13;;;16.23;;
3997;SDS011;61314;53.444;9.902;2022-08-19T10:16:55;24.07;;;16.63;;
3997;SDS011;61314;53.444;9.902;2022-08-19T10:19:24;35.60;;;23.30;;
3997;SDS011;61314;53.444;9.902;2022-08-19T10:21:52;28.30;;;19.93;;
3997;SDS011;61314;53.444;9.902;2022-08-19T10:24:20;39.50;;;21.47;;
3997;SDS011;61314;53.444;9.902;2022-08-19T10:26:50;36.87;;;23.53;;
3997;SDS011;61314;53.444;9.902;2022-08-19T10:29:22;37.63;;;25.73;;
3997;SDS011;61314;53.444;9.902;2022-08-19T10:31:59;37.33;;;26.70;;
3997;SDS011;61314;53.444;9.902;2022-08-19T10:34:28;36.90;;;27.50;;
3997;SDS011;61314;53.444;9.902;2022-08-19T10:36:56;41.07;;;28.90;;
3997;SDS011;61314;53.444;9.902;2022-08-19T10:39:27;34.93;;;25.70;;
3997;SDS011;61314;53.444;9.902;2022-08-19T10:41:56;45.60;;;30.27;;
3997;SDS011;61314;53.444;9.902;2022-08-19T10:44:23;41.40;;;30.67;;
3997;SDS011;61314;53.444;9.902;2022-08-19T10:46:57;50.43;;;32.47;;
3997;SDS011;61314;53.444;9.902;2022-08-19T10:49:25;45.93;;;34.80;;
3997;SDS011;61314;53.444;9.902;2022-08-19T10:51:53;47.60;;;34.90;;
3997;SDS011;61314;53.444;9.902;2022-08-19T10:54:45;46.50;;;32.93;;
3997;SDS011;61314;53.444;9.902;2022-08-19T10:57:33;50.73;;;32.90;;
3997;SDS011;61314;53.444;9.902;2022-08-19T11:00:21;44.57;;;30.60;;
3997;SDS011;61314;53.444;9.902;2022-08-19T11:02:49;43.53;;;31.23;;
3997;SDS011;61314;53.444;9.902;2022-08-19T11:05:16;41.67;;;28.87;;
3997;SDS011;61314;53.444;9.902;2022-08-19T11:07:44;42.03;;;31.27;;
3997;SDS011;61314;53.444;9.902;2022-08-19T11:10:12;47.50;;;31.73;;
3997;SDS011;61314;53.444;9.902;2022-08-19T11:12:46;45.17;;;33.77;;
3997;SDS011;61314;53.444;9.902;2022-08-19T11:15:14;47.73;;;33.90;;
3997;SDS011;61314;53.444;9.902;2022-08-19T11:17:41;51.10;;;36.63;;
3997;SDS011;61314;53.444;9.902;2022-08-19T11:20:12;51.20;;;34.97;;
3997;SDS011;61314;53.444;9.902;2022-08-19T11:22:40;44.70;;;33.80;;
3997;SDS011;61314;53.444;9.902;2022-08-19T11:25:08;46.33;;;34.00;;
3997;SDS011;61314;53.444;9.902;2022-08-19T11:27:39;54.50;;;32.80;;
3997;SDS011;61314;53.444;9.902;2022-08-19T11:30:10;48.67;;;29.63;;
3997;SDS011;61314;53.444;9.902;2022-08-19T11:32:39;44.37;;;31.20;;
3997;SDS011;61314;53.444;9.902;2022-08-19T11:35:13;43.80;;;33.03;;
3997;SDS011;61314;53.444;9.902;2022-08-19T11:37:40;44.10;;;31.67;;
3997;SDS011;61314;53.444;9.902;2022-08-19T11:40:07;42.17;;;30.27;;
3997;SDS011;61314;53.444;9.902;2022-08-19T11:42:35;35.30;;;27.43;;
3997;SDS011;61314;53.444;9.902;2022-08-19T11:45:22;36.13;;;25.97;;
3997;SDS011;61314;53.444;9.902;2022-08-19T11:47:52;31.30;;;26.27;;
3997;SDS011;61314;53.444;9.902;2022-08-19T11:50:20;33.53;;;26.93;;
3997;SDS011;61314;53.444;9.902;2022-08-19T11:52:47;31.60;;;25.67;;
3997;SDS011;61314;53.444;9.902;2022-08-19T11:55:15;25.07;;;22.10;;
3997;SDS011;61314;53.444;9.902;2022-08-19T11:57:42;32.23;;;21.97;;
3997;SDS011;61314;53.444;9.902;2022-08-19T12:00:10;26.67;;;19.70;;
3997;SDS011;61314;53.444;9.902;2022-08-19T12:02:40;29.90;;;21.93;;
3997;SDS011;61314;53.444;9.902;2022-08-19T12:05:08;31.10;;;23.83;;
3997;SDS011;61314;53.444;9.902;2022-08-19T12:07:38;30.80;;;23.57;;
3997;SDS011;61314;53.444;9.902;2022-08-19T12:10:07;33.07;;;28.10;;
3997;SDS011;61314;53.444;9.902;2022-08-19T12:12:35;31.17;;;27.40;;
3997;SDS011;61314;53.444;9.902;2022-08-19T12:15:06;33.60;;;27.27;;
3997;SDS011;61314;53.444;9.902;2022-08-19T12:17:33;29.23;;;24.83;;
3997;SDS011;61314;53.444;9.902;2022-08-19T12:20:00;30.87;;;26.73;;
3997;SDS011;61314;53.444;9.902;2022-08-19T12:22:27;29.17;;;24.50;;
3997;SDS011;61314;53.444;9.902;2022-08-19T12:24:55;29.10;;;21.80;;
3997;SDS011;61314;53.444;9.902;2022-08-19T12:27:22;28.23;;;21.97;;
3997;SDS011;61314;53.444;9.902;2022-08-19T12:30:07;26.67;;;21.50;;
3997;SDS011;61314;53.444;9.902;2022-08-19T12:32:35;22.13;;;19.83;;
3997;SDS011;61314;53.444;9.902;2022-08-19T12:35:03;24.30;;;20.37;;
3997;SDS011;61314;53.444;9.902;2022-08-19T12:37:30;22.83;;;19.70;;
3997;SDS011;61314;53.444;9.902;2022-08-19T12:39:58;24.27;;;20.03;;
3997;SDS011;61314;53.444;9.902;2022-08-19T12:42:25;18.73;;;16.83;;
3997;SDS011;61314;53.444;9.902;2022-08-19T12:44:53;25.40;;;17.70;;
3997;SDS011;61314;53.444;9.902;2022-08-19T12:47:20;18.33;;;15.10;;
3997;SDS011;61314;53.444;9.902;2022-08-19T12:49:48;19.97;;;17.97;;
3997;SDS011;61314;53.444;9.902;2022-08-19T12:52:21;18.53;;;16.53;;
3997;SDS011;61314;53.444;9.902;2022-08-19T12:54:58;19.00;;;17.10;;
3997;SDS011;61314;53.444;9.902;2022-08-19T12:57:26;18.33;;;16.23;;
3997;SDS011;61314;53.444;9.902;2022-08-19T12:59:58;18.17;;;16.27;;
3997;SDS011;61314;53.444;9.902;2022-08-19T13:02:25;14.90;;;13.40;;
3997;SDS011;61314;53.444;9.902;2022-08-19T13:04:52;15.13;;;13.53;;
3997;SDS011;61314;53.444;9.902;2022-08-19T13:07:20;15.30;;;13.70;;
3997;SDS011;61314;53.444;9.902;2022-08-19T13:09:47;14.83;;;13.30;;
3997;SDS011;61314;53.444;9.902;2022-08-19T13:12:14;14.50;;;12.87;;
3997;SDS011;61314;53.444;9.902;2022-08-19T13:14:41;14.47;;;13.00;;
3997;SDS011;61314;53.444;9.902;2022-08-19T13:17:09;13.93;;;12.60;;
3997;SDS011;61314;53.444;9.902;2022-08-19T13:19:37;13.83;;;11.87;;
3997;SDS011;61314;53.444;9.902;2022-08-19T13:22:06;14.17;;;12.67;;
3997;SDS011;61314;53.444;9.902;2022-08-19T13:24:40;14.13;;;12.63;;
3997;SDS011;61314;53.444;9.902;2022-08-19T13:27:12;11.73;;;10.63;;
3997;SDS011;61314;53.444;9.902;2022-08-19T13:29:40;12.37;;;11.20;;
3997;SDS011;61314;53.444;9.902;2022-08-19T13:32:26;12.37;;;10.57;;
3997;SDS011;61314;53.444;9.902;2022-08-19T13:35:14;11.63;;;10.40;;
3997;SDS011;61314;53.444;9.902;2022-08-19T13:37:42;13.50;;;12.17;;
3997;SDS011;61314;53.444;9.902;2022-08-19T13:40:15;12.33;;;11.10;;
3997;SDS011;61314;53.444;9.902;2022-08-19T13:42:45;12.70;;;11.50;;
3997;SDS011;61314;53.444;9.902;2022-08-19T13:45:14;12.20;;;10.97;;
3997;SDS011;61314;53.444;9.902;2022-08-19T13:47:42;12.47;;;11.17;;
3997;SDS011;61314;53.444;9.902;2022-08-19T13:50:12;12.63;;;11.43;;
3997;SDS011;61314;53.444;9.902;2022-08-19T13:52:40;9.93;;;9.10;;
3997;SDS011;61314;53.444;9.902;2022-08-19T13:55:07;11.23;;;10.13;;
3997;SDS011;61314;53.444;9.902;2022-08-19T13:57:35;11.83;;;10.60;;
3997;SDS011;61314;53.444;9.902;2022-08-19T14:00:06;11.57;;;10.47;;
3997;SDS011;61314;53.444;9.902;2022-08-19T14:02:34;11.40;;;10.40;;
3997;SDS011;61314;53.444;9.902;2022-08-19T14:05:04;10.90;;;9.80;;
3997;SDS011;61314;53.444;9.902;2022-08-19T14:07:31;10.00;;;9.10;;
3997;SDS011;61314;53.444;9.902;2022-08-19T14:09:58;12.17;;;10.70;;
3997;SDS011;61314;53.444;9.902;2022-08-19T14:12:25;13.70;;;11.40;;
3997;SDS011;61314;53.444;9.902;2022-08-19T14:14:54;10.57;;;9.70;;
3997;SDS011;61314;53.444;9.902;2022-08-19T14:17:21;10.53;;;9.50;;
3997;SDS011;61314;53.444;9.902;2022-08-19T14:19:48;12.07;;;11.03;;
3997;SDS011;61314;53.444;9.902;2022-08-19T14:22:15;11.20;;;10.10;;
3997;SDS011;61314;53.444;9.902;2022-08-19T14:24:47;12.53;;;11.23;;
3997;SDS011;61314;53.444;9.902;2022-08-19T14:27:16;12.17;;;10.93;;
3997;SDS011;61314;53.444;9.902;2022-08-19T14:29:43;12.20;;;11.00;;
3997;SDS011;61314;53.444;9.902;2022-08-19T14:32:11;10.03;;;9.13;;
3997;SDS011;61314;53.444;9.902;2022-08-19T14:34:42;9.60;;;8.87;;
3997;SDS011;61314;53.444;9.902;2022-08-19T14:37:12;12.40;;;10.33;;
3997;SDS011;61314;53.444;9.902;2022-08-19T14:39:42;13.33;;;12.10;;
3997;SDS011;61314;53.444;9.902;2022-08-19T14:42:09;9.30;;;8.43;;
3997;SDS011;61314;53.444;9.902;2022-08-19T14:44:37;10.33;;;9.33;;
3997;SDS011;61314;53.444;9.902;2022-08-19T14:47:04;9.30;;;8.50;;
3997;SDS011;61314;53.444;9.902;2022-08-19T14:49:35;11.00;;;9.90;;
3997;SDS011;61314;53.444;9.902;2022-08-19T14:52:09;9.60;;;8.80;;
3997;SDS011;61314;53.444;9.902;2022-08-19T14:54:36;8.80;;;8.07;;
3997;SDS011;61314;53.444;9.902;2022-08-19T14:57:03;9.83;;;8.83;;
3997;SDS011;61314;53.444;9.902;2022-08-19T14:59:30;10.20;;;9.40;;
3997;SDS011;61314;53.444;9.902;2022-08-19T15:01:58;9.70;;;8.70;;
3997;SDS011;61314;53.444;9.902;2022-08-19T15:04:45;10.17;;;9.17;;
3997;SDS011;61314;53.444;9.902;2022-08-19T15:07:23;10.93;;;8.13;;
3997;SDS011;61314;53.444;9.902;2022-08-19T15:09:54;9.70;;;8.87;;
3997;SDS011;61314;53.444;9.902;2022-08-19T15:12:21;10.10;;;8.87;;